Time;durP1;ratioP1;P1;durP2;ratioP2;P2;SDS_P1;SDS_P2;PMS_P1;PMS_P2;Temp;Humidity;BMP_temperature;BMP_pressure;BME280_temperature;BME280_humidity;BME280_pressure;Samples;Min_cycle;Max_cycle;Signal;HPM_P1;HPM_P2
2023/02/21 02:16:33;;;;;;;9.70;6.97;;;9.10;99.90;;;;;;5075651;28;20028;-70
2023/02/21 02:19:07;;;;;;;10.05;7.07;;;9.10;99.90;;;;;;5049133;28;20025;-71
2023/02/21 02:22:10;;;;;;;10.77;7.50;;;9.20;99.90;;;;;;5068161;28;20035;-70
2023/02/21 02:24:59;;;;;;;10.35;6.85;;;9.10;99.90;;;;;;5085384;28;20033;-70
2023/02/21 02:27:48;;;;;;;10.65;7.70;;;9.20;99.90;;;;;;5067034;28;20016;-70
2023/02/21 02:30:29;;;;;;;9.50;6.70;;;9.20;99.90;;;;;;5048850;28;20025;-70
2023/02/21 02:33:29;;;;;;;11.20;7.50;;;9.20;99.90;;;;;;5062212;28;20033;-70
2023/02/21 02:36:13;;;;;;;10.95;7.75;;;9.10;99.90;;;;;;5086427;28;20024;-70
2023/02/21 02:38:57;;;;;;;10.07;7.10;;;9.20;99.90;;;;;;5089289;28;20103;-70
2023/02/21 02:41:35;;;;;;;16.25;9.23;;;9.20;99.90;;;;;;5056155;28;20066;-70
2023/02/21 02:44:11;;;;;;;11.25;8.13;;;9.20;99.90;;;;;;5086678;28;20515;-70
2023/02/21 02:46:41;;;;;;;11.43;8.18;;;9.20;99.90;;;;;;5067104;28;20021;-70
2023/02/21 02:49:18;;;;;;;12.13;8.18;;;9.20;99.90;;;;;;5066415;28;20436;-69
2023/02/21 02:51:44;;;;;;;11.77;8.32;;;9.20;99.90;;;;;;5088904;28;20028;-70
2023/02/21 02:54:10;;;;;;;12.20;9.00;;;9.20;99.90;;;;;;5050739;28;20512;-71
2023/02/21 02:56:37;;;;;;;11.77;8.60;;;9.20;99.90;;;;;;5088970;28;20070;-71
2023/02/21 02:59:10;;;;;;;12.75;9.48;;;9.20;99.90;;;;;;5049482;28;20017;-71
2023/02/21 03:01:47;;;;;;;11.93;8.85;;;9.20;99.90;;;;;;5071845;28;20032;-70
2023/02/21 03:04:44;;;;;;;13.40;8.95;;;9.20;99.90;;;;;;5056003;28;20396;-71
2023/02/21 03:07:24;;;;;;;10.38;7.57;;;9.20;99.90;;;;;;5083685;28;20036;-70
2023/02/21 03:09:53;;;;;;;12.00;8.63;;;9.30;99.90;;;;;;5076576;28;20653;-71
2023/02/21 03:12:24;;;;;;;11.65;7.82;;;9.30;99.90;;;;;;5084906;28;20138;-71
2023/02/21 03:15:06;;;;;;;10.98;7.78;;;9.30;99.90;;;;;;5088566;28;20107;-70
2023/02/21 03:17:41;;;;;;;11.85;7.65;;;9.30;99.90;;;;;;5053948;28;20057;-70
2023/02/21 03:20:10;;;;;;;11.05;7.95;;;9.30;99.90;;;;;;5086490;28;20028;-69
2023/02/21 03:22:36;;;;;;;11.38;6.97;;;9.40;99.90;;;;;;5086655;28;20032;-70
2023/02/21 03:25:03;;;;;;;10.80;7.65;;;9.40;99.90;;;;;;5076171;28;20028;-70
2023/02/21 03:27:30;;;;;;;10.65;6.60;;;9.40;99.90;;;;;;5086386;28;20487;-71
2023/02/21 03:29:59;;;;;;;12.48;7.68;;;9.40;99.90;;;;;;5067992;28;20447;-71
2023/02/21 03:34:57;;;;;;;9.60;6.78;;;9.40;99.90;;;;;;5048204;28;20021;-69
2023/02/21 03:37:33;;;;;;;9.48;6.10;;;9.50;99.90;;;;;;5084810;28;20129;-71
2023/02/21 03:40:00;;;;;;;9.07;6.30;;;9.50;99.90;;;;;;5068233;28;20449;-69
2023/02/21 03:42:25;;;;;;;10.70;6.22;;;9.50;99.90;;;;;;5072433;28;20578;-70
2023/02/21 03:44:51;;;;;;;10.70;7.03;;;9.50;99.90;;;;;;5087452;28;20024;-70
2023/02/21 03:47:16;;;;;;;9.10;5.85;;;9.50;99.90;;;;;;5056277;28;20397;-70
2023/02/21 03:49:42;;;;;;;6.88;5.03;;;9.60;99.90;;;;;;5086047;28;20032;-70
2023/02/21 03:52:11;;;;;;;12.15;6.85;;;9.60;99.90;;;;;;5068219;28;20041;-70
2023/02/21 03:54:37;;;;;;;8.73;6.10;;;9.60;99.90;;;;;;5077931;28;20503;-71
2023/02/21 03:57:03;;;;;;;9.25;6.20;;;9.60;99.90;;;;;;5086364;28;20104;-70
2023/02/21 03:59:28;;;;;;;8.27;5.72;;;9.60;99.90;;;;;;5076388;28;20119;-71
2023/02/21 04:01:54;;;;;;;9.15;5.43;;;9.60;99.90;;;;;;5085211;28;20032;-70
2023/02/21 04:04:19;;;;;;;8.10;5.60;;;9.60;99.90;;;;;;5083183;28;20203;-70
2023/02/21 04:06:45;;;;;;;8.88;5.22;;;9.60;99.90;;;;;;5061956;28;20025;-69
2023/02/21 04:09:10;;;;;;;7.50;5.18;;;9.60;99.90;;;;;;5067662;28;20025;-70
2023/02/21 04:11:36;;;;;;;9.32;5.88;;;9.70;99.90;;;;;;5085226;28;20435;-70
2023/02/21 04:14:03;;;;;;;7.97;5.45;;;9.60;99.90;;;;;;5079979;28;20082;-70
2023/02/21 04:16:29;;;;;;;9.23;5.43;;;9.60;99.90;;;;;;5089486;28;20385;-70
2023/02/21 04:18:54;;;;;;;7.90;5.63;;;9.60;99.90;;;;;;5091598;28;20081;-71
2023/02/21 04:21:20;;;;;;;6.90;4.88;;;9.60;99.90;;;;;;5069693;28;20025;-71
2023/02/21 04:23:45;;;;;;;8.77;5.53;;;9.60;99.90;;;;;;5069328;28;20385;-71
2023/02/21 04:26:10;;;;;;;9.10;5.45;;;9.50;99.90;;;;;;5067685;28;20040;-69
2023/02/21 04:28:36;;;;;;;8.52;5.43;;;9.60;99.90;;;;;;5051761;28;20210;-70
2023/02/21 04:31:01;;;;;;;8.23;4.80;;;9.50;99.90;;;;;;5090496;28;20028;-71
2023/02/21 04:33:27;;;;;;;8.73;5.82;;;9.50;99.90;;;;;;5050977;28;20082;-70
2023/02/21 04:35:52;;;;;;;8.48;5.32;;;9.50;99.90;;;;;;5068654;28;20443;-70
2023/02/21 04:38:18;;;;;;;7.78;5.63;;;9.50;99.90;;;;;;5068071;28;20031;-71
2023/02/21 04:40:43;;;;;;;7.53;5.15;;;9.50;99.90;;;;;;5076198;28;20501;-71
2023/02/21 04:43:09;;;;;;;7.47;5.18;;;9.40;99.90;;;;;;5074893;28;20025;-71
2023/02/21 04:45:34;;;;;;;6.80;4.97;;;9.40;99.90;;;;;;5071370;28;20488;-70
2023/02/21 04:48:00;;;;;;;9.18;5.45;;;9.40;99.90;;;;;;5068807;28;20025;-70
2023/02/21 04:50:27;;;;;;;8.40;5.22;;;9.40;99.90;;;;;;5068971;28;20024;-71
2023/02/21 04:52:53;;;;;;;5.65;4.35;;;9.40;99.90;;;;;;5069343;28;20732;-70
2023/02/21 04:55:18;;;;;;;7.95;5.00;;;9.40;99.90;;;;;;5079522;28;20127;-70
2023/02/21 04:57:43;;;;;;;6.68;4.47;;;9.50;99.90;;;;;;5089596;28;20357;-70
2023/02/21 05:00:10;;;;;;;7.60;4.97;;;9.40;99.90;;;;;;5088932;28;20028;-70
2023/02/21 05:02:35;;;;;;;7.40;4.85;;;9.40;99.90;;;;;;5091336;28;20082;-57
2023/02/21 05:05:01;;;;;;;7.35;4.82;;;9.40;99.90;;;;;;5081289;28;20025;-64
2023/02/21 05:07:26;;;;;;;7.25;4.72;;;9.40;99.90;;;;;;5075863;28;20028;-59
2023/02/21 05:09:52;;;;;;;8.02;5.40;;;9.40;99.90;;;;;;5070975;28;20032;-59
2023/02/21 05:12:17;;;;;;;8.20;5.53;;;9.40;99.90;;;;;;5089814;28;20055;-58
2023/02/21 05:14:43;;;;;;;10.30;5.82;;;9.40;99.90;;;;;;5052781;28;20051;-64
2023/02/21 05:17:08;;;;;;;9.50;6.13;;;9.40;99.90;;;;;;5070051;28;20059;-63
2023/02/21 05:19:34;;;;;;;9.35;6.05;;;9.40;99.90;;;;;;5072599;28;20133;-63
2023/02/21 05:22:01;;;;;;;7.90;5.25;;;9.40;99.90;;;;;;5090207;28;20020;-63
2023/02/21 05:24:28;;;;;;;7.70;4.93;;;9.40;99.90;;;;;;5054212;28;20118;-63
2023/02/21 05:26:55;;;;;;;7.55;4.78;;;9.40;99.90;;;;;;5070139;28;20036;-64
2023/02/21 05:29:21;;;;;;;7.00;4.57;;;9.40;99.90;;;;;;5061335;28;20091;-63
2023/02/21 05:31:46;;;;;;;6.60;4.45;;;9.40;99.90;;;;;;5089179;28;20072;-63
2023/02/21 05:34:13;;;;;;;7.00;5.07;;;9.40;99.90;;;;;;5056346;28;20310;-64
2023/02/21 05:36:38;;;;;;;6.88;4.85;;;9.40;99.90;;;;;;5069962;28;20029;-64
2023/02/21 05:39:05;;;;;;;8.05;4.85;;;9.40;99.90;;;;;;5076303;28;20032;-63
2023/02/21 05:41:31;;;;;;;5.93;4.25;;;9.40;99.90;;;;;;5084928;28;20028;-63
2023/02/21 05:43:56;;;;;;;6.05;4.40;;;9.40;99.90;;;;;;5070451;28;20013;-64
2023/02/21 05:46:33;;;;;;;6.32;3.97;;;9.40;99.90;;;;;;5087766;28;20539;-63
2023/02/21 05:49:00;;;;;;;6.53;4.55;;;9.40;99.90;;;;;;5090774;28;20464;-63
2023/02/21 05:51:27;;;;;;;5.40;3.58;;;9.40;99.90;;;;;;5068373;28;20059;-64
2023/02/21 05:53:53;;;;;;;6.35;4.22;;;9.40;99.90;;;;;;5069930;28;20025;-64
2023/02/21 05:56:20;;;;;;;6.57;3.45;;;9.40;99.90;;;;;;5089465;28;20020;-63
2023/02/21 05:58:45;;;;;;;4.82;2.95;;;9.40;99.90;;;;;;5088660;28;20220;-64
2023/02/21 06:01:11;;;;;;;5.57;3.15;;;9.40;99.90;;;;;;5070440;28;20024;-64
2023/02/21 06:03:36;;;;;;;4.70;3.00;;;9.40;99.90;;;;;;5068794;28;20391;-63
2023/02/21 06:06:03;;;;;;;4.22;2.70;;;9.40;99.90;;;;;;5082395;28;20028;-63
2023/02/21 06:08:28;;;;;;;3.85;2.63;;;9.40;99.90;;;;;;5069804;28;20052;-64
2023/02/21 06:10:54;;;;;;;3.70;2.58;;;9.40;99.90;;;;;;5089132;28;20114;-63
2023/02/21 06:13:19;;;;;;;4.80;2.58;;;9.40;99.90;;;;;;5051756;28;20102;-63
2023/02/21 06:15:45;;;;;;;5.00;3.42;;;9.50;99.90;;;;;;5068649;28;20408;-63
2023/02/21 06:18:14;;;;;;;4.22;2.58;;;9.40;99.90;;;;;;5071679;28;20029;-63
2023/02/21 06:20:40;;;;;;;5.50;3.55;;;9.40;99.90;;;;;;5088875;28;20077;-63
2023/02/21 06:23:05;;;;;;;8.15;4.05;;;9.50;99.90;;;;;;5053615;28;20029;-63
2023/02/21 06:25:31;;;;;;;5.88;3.90;;;9.40;99.90;;;;;;5062452;28;20093;-64
2023/02/21 06:27:56;;;;;;;8.82;4.25;;;9.50;99.90;;;;;;5071736;28;20037;-63
2023/02/21 06:30:22;;;;;;;5.88;3.80;;;9.50;99.90;;;;;;5071703;28;20032;-64
2023/02/21 06:32:47;;;;;;;4.60;3.42;;;9.50;99.90;;;;;;5087381;28;20487;-63
2023/02/21 06:35:13;;;;;;;6.32;3.70;;;9.50;99.90;;;;;;5054412;28;20486;-63
2023/02/21 06:37:38;;;;;;;4.35;2.95;;;9.50;99.90;;;;;;5066613;28;20226;-63
2023/02/21 06:40:04;;;;;;;4.45;2.92;;;9.50;99.90;;;;;;5085365;28;20038;-63
2023/02/21 06:42:30;;;;;;;4.55;2.97;;;9.60;99.90;;;;;;5068377;28;20035;-63
2023/02/21 06:44:56;;;;;;;3.70;2.60;;;9.60;99.90;;;;;;5085373;28;20107;-63
2023/02/21 06:47:21;;;;;;;4.20;2.65;;;9.60;99.90;;;;;;5068109;28;20420;-63
2023/02/21 06:49:47;;;;;;;4.45;3.15;;;9.60;99.90;;;;;;5084966;28;20035;-63
2023/02/21 06:52:12;;;;;;;4.35;2.72;;;9.60;99.90;;;;;;5066562;28;20523;-63
2023/02/21 06:54:38;;;;;;;5.50;2.45;;;9.60;99.90;;;;;;5085129;28;20128;-63
2023/02/21 06:57:04;;;;;;;3.42;2.25;;;9.60;99.90;;;;;;5087690;28;20034;-63
2023/02/21 06:59:30;;;;;;;2.90;2.08;;;9.70;99.90;;;;;;5066028;28;20368;-63
2023/02/21 07:01:56;;;;;;;2.70;1.80;;;9.70;99.90;;;;;;5067312;28;20052;-63
2023/02/21 07:04:22;;;;;;;2.55;1.58;;;9.70;99.90;;;;;;5065564;28;20036;-60
2023/02/21 07:06:47;;;;;;;1.73;1.40;;;9.80;99.90;;;;;;5084459;28;20020;-63
2023/02/21 07:09:13;;;;;;;1.63;1.40;;;9.80;99.90;;;;;;5068165;28;20028;-65
2023/02/21 07:11:39;;;;;;;4.72;1.63;;;9.80;99.90;;;;;;5068822;28;20060;-64
2023/02/21 07:14:04;;;;;;;1.27;1.00;;;9.80;99.90;;;;;;5068994;28;20162;-64
2023/02/21 07:16:30;;;;;;;1.27;1.05;;;9.80;99.90;;;;;;5087955;28;20043;-65
2023/02/21 07:18:56;;;;;;;0.93;0.80;;;9.80;99.90;;;;;;5051392;28;20393;-64
2023/02/21 07:21:21;;;;;;;2.03;1.20;;;9.80;99.90;;;;;;5067377;28;20120;-64
2023/02/21 07:23:47;;;;;;;1.48;1.08;;;9.80;99.90;;;;;;5071248;28;20052;-65
2023/02/21 07:26:14;;;;;;;1.45;1.00;;;9.80;99.90;;;;;;5087720;28;20036;-64
2023/02/21 07:28:40;;;;;;;2.33;0.90;;;9.90;99.90;;;;;;5053351;28;20035;-64
2023/02/21 07:31:06;;;;;;;3.13;0.85;;;10.00;99.90;;;;;;5067422;28;20021;-64
2023/02/21 07:33:31;;;;;;;0.80;0.70;;;10.30;99.90;;;;;;5073387;28;20447;-64
2023/02/21 07:35:57;;;;;;;2.25;0.70;;;10.50;99.90;;;;;;5087496;28;20024;-64
2023/02/21 07:38:24;;;;;;;1.02;0.60;;;10.70;99.90;;;;;;5066489;28;20504;-65
2023/02/21 07:40:52;;;;;;;0.95;0.80;;;10.80;99.90;;;;;;5087720;28;20017;-65
2023/02/21 07:43:18;;;;;;;2.10;0.60;;;10.90;99.90;;;;;;5066102;28;20033;-64
2023/02/21 07:45:44;;;;;;;0.98;0.90;;;11.00;99.90;;;;;;5087392;28;20377;-65
2023/02/21 07:48:13;;;;;;;1.02;0.80;;;11.00;99.90;;;;;;5065677;28;20153;-64
2023/02/21 07:50:42;;;;;;;1.83;1.00;;;11.10;99.90;;;;;;5087671;28;20093;-65
2023/02/21 07:53:08;;;;;;;0.80;0.68;;;11.10;99.90;;;;;;5065749;28;20123;-65
2023/02/21 07:55:34;;;;;;;0.55;0.47;;;11.20;99.90;;;;;;5087437;28;20419;-65
2023/02/21 07:57:59;;;;;;;2.47;0.80;;;11.30;99.90;;;;;;5066279;28;20064;-64
2023/02/21 08:00:25;;;;;;;1.25;0.55;;;11.30;99.90;;;;;;5087196;28;20040;-65
2023/02/21 08:02:51;;;;;;;1.80;0.68;;;11.30;99.90;;;;;;5066192;28;20496;-64
2023/02/21 08:05:18;;;;;;;0.70;0.60;;;11.30;99.90;;;;;;5068504;28;20024;-64
2023/02/21 08:07:44;;;;;;;0.60;0.60;;;11.30;99.90;;;;;;5067719;28;20048;-64
2023/02/21 08:10:10;;;;;;;0.93;0.75;;;11.30;99.90;;;;;;5067511;28;20032;-64
2023/02/21 08:12:36;;;;;;;0.82;0.80;;;11.30;99.90;;;;;;5085326;28;20032;-64
2023/02/21 08:15:03;;;;;;;0.80;0.80;;;11.30;99.90;;;;;;5087752;28;20387;-64
2023/02/21 08:17:29;;;;;;;0.68;0.63;;;11.40;99.90;;;;;;5065848;28;20067;-64
2023/02/21 08:19:54;;;;;;;1.98;0.90;;;11.50;99.90;;;;;;5067566;28;20052;-64
2023/02/21 08:22:20;;;;;;;0.50;0.50;;;11.70;99.90;;;;;;5084894;28;20032;-65
2023/02/21 08:24:48;;;;;;;0.70;0.70;;;11.80;99.90;;;;;;5087645;28;20020;-65
2023/02/21 08:27:14;;;;;;;0.80;0.70;;;12.00;99.90;;;;;;5065573;28;20107;-64
2023/02/21 08:29:39;;;;;;;0.77;0.60;;;12.10;99.90;;;;;;5067388;28;20116;-65
2023/02/21 08:32:05;;;;;;;0.77;0.60;;;12.10;99.90;;;;;;5084825;28;20202;-64
2023/02/21 08:34:30;;;;;;;0.77;0.60;;;12.40;99.90;;;;;;5087573;28;20028;-65
2023/02/21 08:36:56;;;;;;;0.50;0.50;;;12.50;99.90;;;;;;5067900;28;20033;-65
2023/02/21 08:39:21;;;;;;;0.85;0.52;;;12.70;99.90;;;;;;5065637;28;20025;-65
2023/02/21 08:41:51;;;;;;;1.65;0.60;;;12.80;99.00;;;;;;5086902;28;20064;-65
2023/02/21 08:44:20;;;;;;;2.97;1.20;;;12.80;99.90;;;;;;5045600;28;20082;-65
2023/02/21 08:46:46;;;;;;;1.85;0.82;;;12.70;95.60;;;;;;5067175;28;20082;-64
2023/02/21 08:49:11;;;;;;;3.38;0.85;;;12.70;98.70;;;;;;5066980;28;20388;-65
2023/02/21 08:51:37;;;;;;;1.25;0.88;;;12.70;93.60;;;;;;5086756;28;20020;-64
2023/02/21 08:54:03;;;;;;;1.90;0.73;;;12.70;95.80;;;;;;5049377;28;20028;-65
2023/02/21 08:56:29;;;;;;;1.70;0.68;;;12.70;96.50;;;;;;5066461;28;20097;-65
2023/02/21 08:58:55;;;;;;;3.10;1.10;;;12.70;87.10;;;;;;5069530;28;20063;-64
2023/02/21 09:01:22;;;;;;;4.80;1.00;;;12.60;90.30;;;;;;5089938;28;20078;-64
2023/02/21 09:03:47;;;;;;;4.35;1.17;;;12.50;88.20;;;;;;5055150;28;20033;-64
2023/02/21 09:06:14;;;;;;;4.25;1.17;;;12.40;87.90;;;;;;5066523;28;20515;-65
2023/02/21 09:08:39;;;;;;;3.80;1.38;;;12.30;89.70;;;;;;5074904;28;20531;-64
2023/02/21 09:11:06;;;;;;;5.10;1.27;;;12.20;86.00;;;;;;5090308;28;20028;-64
2023/02/21 09:13:32;;;;;;;3.85;1.23;;;12.10;87.80;;;;;;5056929;28;20247;-64
2023/02/21 09:15:59;;;;;;;3.67;0.90;;;12.10;89.00;;;;;;5070084;28;20123;-64
2023/02/21 09:18:25;;;;;;;5.03;1.75;;;12.10;85.20;;;;;;5088282;28;20086;-64
2023/02/21 09:20:52;;;;;;;5.70;1.10;;;12.00;82.70;;;;;;5070902;28;20428;-64
2023/02/21 09:23:19;;;;;;;4.07;1.10;;;11.90;86.60;;;;;;5086976;28;20058;-64
2023/02/21 09:25:46;;;;;;;8.05;1.20;;;11.90;81.50;;;;;;5070780;28;20029;-65
2023/02/21 09:28:12;;;;;;;4.32;0.90;;;11.70;78.20;;;;;;5088300;28;20035;-64
2023/02/21 09:30:37;;;;;;;9.73;1.95;;;11.70;79.30;;;;;;5070910;28;20407;-65
2023/02/21 09:33:03;;;;;;;4.03;1.40;;;11.60;78.80;;;;;;5086207;28;20036;-64
2023/02/21 09:35:29;;;;;;;6.43;1.40;;;11.60;77.40;;;;;;5070864;28;20347;-64
2023/02/21 09:37:57;;;;;;;6.53;2.03;;;11.60;79.90;;;;;;5087805;28;20043;-64
2023/02/21 09:40:43;;;;;;;5.00;1.88;;;11.60;77.30;;;;;;5089250;28;20028;-64
2023/02/21 09:43:27;;;;;;;4.18;1.40;;;11.60;74.80;;;;;;5068787;28;20028;-65
2023/02/21 09:45:55;;;;;;;8.65;1.60;;;11.50;76.70;;;;;;5050113;28;20025;-65
2023/02/21 09:48:22;;;;;;;4.55;1.85;;;11.50;75.00;;;;;;5087632;28;20073;-64
2023/02/21 09:50:51;;;;;;;5.63;1.40;;;11.40;75.60;;;;;;5070190;28;20064;-66
2023/02/21 09:53:22;;;;;;;6.70;2.03;;;11.40;76.20;;;;;;5087735;28;20453;-64
2023/02/21 09:55:50;;;;;;;8.95;1.80;;;11.40;77.30;;;;;;5050038;28;20025;-64
2023/02/21 09:58:18;;;;;;;10.35;1.60;;;11.50;76.50;;;;;;5087363;28;20111;-64
2023/02/21 10:00:45;;;;;;;8.82;1.90;;;11.50;74.90;;;;;;5070262;28;20166;-64
2023/02/21 10:03:40;;;;;;;5.78;1.38;;;11.50;74.10;;;;;;5087420;28;20051;-64
2023/02/21 10:06:05;;;;;;;3.97;1.55;;;11.50;72.50;;;;;;5042566;28;20551;-64
2023/02/21 10:08:50;;;;;;;6.55;1.48;;;11.50;75.10;;;;;;5074073;28;20049;-65
2023/02/21 10:11:35;;;;;;;8.77;1.38;;;11.50;75.10;;;;;;5048573;28;20028;-65
2023/02/21 10:14:11;;;;;;;7.55;1.70;;;11.60;73.20;;;;;;5064085;28;20033;-64
2023/02/21 10:16:44;;;;;;;8.52;1.65;;;11.60;74.80;;;;;;5049622;28;20025;-65
2023/02/21 10:19:31;;;;;;;8.77;1.63;;;11.50;70.80;;;;;;5065442;28;20036;-64
2023/02/21 10:21:59;;;;;;;7.85;1.50;;;11.50;72.30;;;;;;5049463;28;20211;-65
2023/02/21 10:24:27;;;;;;;4.38;1.52;;;11.50;74.30;;;;;;5067357;28;20112;-64
2023/02/21 10:26:58;;;;;;;5.82;1.42;;;11.60;74.70;;;;;;5089074;28;20090;-64
2023/02/21 10:29:34;;;;;;;3.75;1.40;;;11.60;73.70;;;;;;5066929;28;20434;-65
2023/02/21 10:32:02;;;;;;;4.97;1.52;;;11.70;76.70;;;;;;5049262;28;20044;-64
2023/02/21 10:34:30;;;;;;;4.30;1.20;;;11.90;76.90;;;;;;5049122;28;20045;-64
2023/02/21 10:37:03;;;;;;;5.05;1.48;;;11.90;75.00;;;;;;5088680;28;20032;-64
2023/02/21 10:39:50;;;;;;;4.10;1.60;;;12.00;75.50;;;;;;5049003;28;20442;-65
2023/02/21 10:42:23;;;;;;;;;;;12.00;71.90;;;;;;5051197;28;20111;-65
2023/02/21 10:44:49;;;;;;;4.80;1.65;;;12.00;67.90;;;;;;5089201;28;20018;-64
2023/02/21 10:47:15;;;;;;;12.07;1.90;;;11.90;71.50;;;;;;5067193;28;20036;-64
2023/02/21 10:49:58;;;;;;;2.33;1.20;;;11.90;71.60;;;;;;5069363;28;20024;-64
2023/02/21 10:52:24;;;;;;;6.93;1.83;;;11.90;70.50;;;;;;5068128;28;20031;-64
2023/02/21 10:55:08;;;;;;;7.20;1.98;;;11.80;68.40;;;;;;5088973;28;20399;-65
2023/02/21 10:57:40;;;;;;;6.60;2.22;;;11.80;69.70;;;;;;5055599;28;20488;-64
2023/02/21 11:00:09;;;;;;;10.82;2.38;;;11.70;68.00;;;;;;5088853;28;20028;-64
2023/02/21 11:02:39;;;;;;;8.55;2.17;;;11.70;66.30;;;;;;5066703;28;20111;-65
2023/02/21 11:05:19;;;;;;;6.75;1.88;;;11.70;70.60;;;;;;5070684;28;20529;-64
2023/02/21 11:07:58;;;;;;;8.57;1.98;;;11.80;71.30;;;;;;5072924;28;20477;-55
2023/02/21 11:10:32;;;;;;;8.07;1.58;;;11.90;66.40;;;;;;5068051;28;20032;-69
2023/02/21 11:13:21;;;;;;;9.15;2.45;;;11.90;63.30;;;;;;5061727;28;20515;-67
2023/02/21 11:15:47;;;;;;;14.43;2.03;;;11.70;63.80;;;;;;5074036;28;20085;-69
2023/02/21 11:18:21;;;;;;;7.65;1.65;;;11.70;65.30;;;;;;5071111;28;20028;-69
2023/02/21 11:20:47;;;;;;;9.40;2.25;;;11.70;66.30;;;;;;5086355;28;20038;-69
2023/02/21 11:23:30;;;;;;;9.10;2.30;;;11.80;64.30;;;;;;5050437;28;20035;-68
2023/02/21 11:26:06;;;;;;;11.30;2.28;;;11.80;64.80;;;;;;5088429;28;20487;-69
2023/02/21 11:28:39;;;;;;;9.13;2.15;;;11.90;63.00;;;;;;5048511;28;20028;-69
2023/02/21 11:31:19;;;;;;;7.88;1.98;;;11.90;64.30;;;;;;5048105;28;20048;-68
2023/02/21 11:33:54;;;;;;;9.15;1.90;;;12.00;63.80;;;;;;5048035;28;20040;-69
2023/02/21 11:36:35;;;;;;;7.47;2.38;;;12.00;63.30;;;;;;5066023;28;20593;-69
2023/02/21 11:39:29;;;;;;;12.02;2.13;;;12.20;65.10;;;;;;5047284;28;20025;-69
2023/02/21 11:41:57;;;;;;;9.80;1.95;;;12.20;61.80;;;;;;5088129;28;20024;-69
2023/02/21 11:44:28;;;;;;;8.95;1.90;;;12.30;64.90;;;;;;5066128;28;20305;-69
2023/02/21 11:47:13;;;;;;;13.32;2.67;;;12.40;64.10;;;;;;5068073;28;20100;-69
2023/02/21 11:49:58;;;;;;;7.45;2.13;;;12.50;62.00;;;;;;5057495;28;20036;-69
2023/02/21 11:52:43;;;;;;;5.95;1.85;;;12.50;57.70;;;;;;5068069;28;20044;-69
2023/02/21 11:55:15;;;;;;;13.70;2.65;;;12.40;54.80;;;;;;5065737;28;20032;-68
2023/02/21 11:57:49;;;;;;;12.10;2.47;;;12.40;53.40;;;;;;5047873;28;20029;-69
2023/02/21 12:00:29;;;;;;;13.23;2.30;;;12.60;54.80;;;;;;5065735;28;20035;-68
2023/02/21 12:03:05;;;;;;;6.43;1.80;;;12.70;54.20;;;;;;5087869;28;20023;-69
2023/02/21 12:05:46;;;;;;;5.50;2.00;;;12.70;54.40;;;;;;5055481;28;20032;-68
2023/02/21 12:08:39;;;;;;;10.98;2.15;;;12.70;54.50;;;;;;5086709;28;20043;-68
2023/02/21 12:11:05;;;;;;;8.80;2.03;;;12.70;48.50;;;;;;5066045;28;20124;-69
2023/02/21 12:13:54;;;;;;;11.05;2.17;;;12.70;53.20;;;;;;5067456;28;20508;-69
2023/02/21 12:16:49;;;;;;;12.48;2.58;;;12.70;48.10;;;;;;5064158;28;20446;-69
2023/02/21 12:19:30;;;;;;;7.95;1.90;;;12.80;47.60;;;;;;5048121;28;20036;-68
2023/02/21 12:22:01;;;;;;;6.82;2.17;;;13.00;49.00;;;;;;5085663;28;20024;-70
2023/02/21 12:24:41;;;;;;;7.65;1.63;;;13.10;52.10;;;;;;5047614;28;20032;-69
2023/02/21 12:27:30;;;;;;;11.73;2.80;;;13.20;48.00;;;;;;5060911;28;20082;-68
2023/02/21 12:30:36;;;;;;;5.13;2.25;;;13.20;42.40;;;;;;5064847;28;20021;-69
2023/02/21 12:33:19;;;;;;;10.13;2.70;;;13.20;43.10;;;;;;5067597;28;20028;-69
2023/02/21 12:36:11;;;;;;;8.48;1.90;;;13.30;43.80;;;;;;5076833;28;20059;-69
2023/02/21 12:39:10;;;;;;;10.45;1.80;;;13.40;43.00;;;;;;5051419;28;20627;-69
2023/02/21 12:41:47;;;;;;;7.40;2.33;;;13.40;37.50;;;;;;5070430;28;20491;-69
2023/02/21 12:44:21;;;;;;;8.10;1.95;;;13.20;38.30;;;;;;5088202;28;20031;-68
2023/02/21 12:46:56;;;;;;;13.85;2.65;;;13.20;39.90;;;;;;5053500;28;20114;-69
2023/02/21 12:49:50;;;;;;;9.82;2.10;;;13.00;40.10;;;;;;5067517;28;20112;-68
2023/02/21 12:52:37;;;;;;;8.55;2.15;;;13.00;38.80;;;;;;5051899;28;20037;-68
2023/02/21 12:55:23;;;;;;;10.65;2.38;;;13.00;41.40;;;;;;5083559;28;20520;-69
2023/02/21 12:57:57;;;;;;;9.57;2.17;;;13.00;38.10;;;;;;5069212;28;20279;-69
2023/02/21 13:00:26;;;;;;;9.55;2.60;;;13.00;39.90;;;;;;5071165;28;20210;-69
2023/02/21 13:03:24;;;;;;;11.95;2.95;;;13.00;39.70;;;;;;5089084;28;20035;-69
2023/02/21 13:05:56;;;;;;;8.45;1.90;;;12.90;38.70;;;;;;5048587;28;20033;-68
2023/02/21 13:08:35;;;;;;;9.55;2.50;;;12.80;43.90;;;;;;5050727;28;20052;-69
2023/02/21 13:11:21;;;;;;;12.20;2.00;;;12.80;44.80;;;;;;5064848;28;20162;-69
2023/02/21 13:13:46;;;;;;;5.03;1.85;;;12.70;42.50;;;;;;5050529;28;20044;-69
2023/02/21 13:16:13;;;;;;;9.07;1.98;;;12.60;44.00;;;;;;5070144;28;20062;-57
2023/02/21 13:18:44;;;;;;;8.73;2.47;;;12.60;45.70;;;;;;5090390;28;20039;-57
2023/02/21 13:21:19;;;;;;;7.55;2.38;;;12.50;45.20;;;;;;5066021;28;20028;-57
2023/02/21 13:26:45;;;;;;;9.48;2.55;;;12.30;44.90;;;;;;5050693;28;20064;-57
2023/02/21 13:29:37;;;;;;;8.30;2.63;;;12.20;42.10;;;;;;5088485;28;20175;-57
2023/02/21 13:32:10;;;;;;;10.35;2.28;;;12.20;43.90;;;;;;5087812;28;20032;-57
2023/02/21 13:34:40;;;;;;;8.00;2.22;;;12.00;44.90;;;;;;5068654;28;20032;-58
2023/02/21 13:37:13;;;;;;;7.40;1.98;;;11.80;45.00;;;;;;5068258;28;20031;-59
2023/02/21 13:39:45;;;;;;;9.43;2.03;;;11.60;47.60;;;;;;5051754;28;20025;-58
2023/02/21 13:42:26;;;;;;;7.07;2.05;;;11.60;49.10;;;;;;5067181;28;20036;-56
2023/02/21 13:45:07;;;;;;;14.38;2.70;;;11.40;48.90;;;;;;5050385;28;20112;-57
2023/02/21 13:47:51;;;;;;;10.05;3.38;;;11.30;49.70;;;;;;5072291;28;20036;-57
2023/02/21 13:50:36;;;;;;;11.30;2.50;;;11.10;50.80;;;;;;5070815;28;20039;-58
2023/02/21 13:53:07;;;;;;;10.57;2.10;;;11.00;51.90;;;;;;5071265;28;20029;-58
2023/02/21 13:55:34;;;;;;;8.48;1.83;;;11.00;52.70;;;;;;5089756;28;20051;-56
2023/02/21 13:58:04;;;;;;;9.00;2.38;;;11.00;53.20;;;;;;5065859;28;20063;-58
2023/02/21 14:00:29;;;;;;;12.85;3.13;;;10.90;53.70;;;;;;5069770;28;20036;-59
2023/02/21 14:02:56;;;;;;;13.60;2.90;;;10.90;53.60;;;;;;5071991;28;20126;-58
2023/02/21 14:05:23;;;;;;;10.80;2.47;;;10.80;54.50;;;;;;5073795;28;20066;-57
2023/02/21 14:08:00;;;;;;;13.40;2.38;;;10.70;54.50;;;;;;5080918;28;20789;-59
2023/02/21 14:10:50;;;;;;;11.82;2.20;;;10.70;55.70;;;;;;5049842;28;20052;-57
2023/02/21 14:13:33;;;;;;;7.22;2.67;;;10.70;56.20;;;;;;5057287;28;20075;-59
2023/02/21 14:16:18;;;;;;;9.38;1.85;;;10.60;56.50;;;;;;5049978;28;20103;-57
2023/02/21 14:19:04;;;;;;;6.13;1.50;;;10.50;57.00;;;;;;5048427;28;20521;-58
2023/02/21 14:21:40;;;;;;;12.70;2.17;;;10.50;57.60;;;;;;5055591;28;20028;-57
2023/02/21 14:24:08;;;;;;;11.05;2.55;;;10.40;58.00;;;;;;5089780;28;20020;-59
2023/02/21 14:26:57;;;;;;;11.23;2.58;;;10.40;58.60;;;;;;5068247;28;20039;-59
2023/02/21 14:29:35;;;;;;;11.48;2.67;;;10.40;58.70;;;;;;5069769;28;20055;-58
2023/02/21 14:32:03;;;;;;;4.30;1.80;;;10.30;60.00;;;;;;5063603;28;20402;-62
2023/02/21 14:34:53;;;;;;;13.07;2.80;;;10.20;59.80;;;;;;5069644;28;20620;-59
2023/02/21 14:37:39;;;;;;;10.75;2.60;;;10.20;60.30;;;;;;5068655;28;20034;-58
2023/02/21 14:40:20;;;;;;;9.85;2.58;;;10.10;60.60;;;;;;5049554;28;20266;-59
2023/02/21 14:42:45;;;;;;;15.18;2.60;;;10.10;61.00;;;;;;5061713;28;20126;-58
2023/02/21 14:45:11;;;;;;;11.60;2.92;;;10.00;61.70;;;;;;5088748;28;20616;-59
2023/02/21 14:47:45;;;;;;;11.40;2.25;;;10.00;62.20;;;;;;5054722;28;20029;-59
2023/02/21 14:50:55;;;;;;;8.73;2.70;;;9.90;62.70;;;;;;5049174;28;20036;-58
2023/02/21 14:53:39;;;;;;;10.25;2.22;;;9.90;63.40;;;;;;5065560;28;20044;-59
2023/02/21 14:56:04;;;;;;;13.45;3.17;;;9.90;63.50;;;;;;5047607;28;20658;-57
2023/02/21 14:59:00;;;;;;;6.57;2.13;;;9.80;63.70;;;;;;5074773;28;20029;-59
2023/02/21 15:01:54;;;;;;;12.63;2.70;;;9.80;64.50;;;;;;5053297;28;20107;-58
2023/02/21 15:04:28;;;;;;;11.45;2.97;;;9.80;64.70;;;;;;5068522;28;20506;-59
2023/02/21 15:07:05;;;;;;;15.73;2.80;;;9.80;64.50;;;;;;5053953;28;20035;-59
2023/02/21 15:09:30;;;;;;;9.18;2.40;;;9.70;65.40;;;;;;5088982;28;20110;-58
2023/02/21 15:11:57;;;;;;;5.47;1.90;;;9.70;65.40;;;;;;5066899;28;20135;-60
2023/02/21 15:14:26;;;;;;;10.77;2.50;;;9.80;65.20;;;;;;5068909;28;20070;-59
2023/02/21 15:16:57;;;;;;;11.45;2.65;;;9.80;65.20;;;;;;5086763;28;20032;-58
2023/02/21 15:19:29;;;;;;;11.98;2.53;;;9.80;64.60;;;;;;5088860;28;20483;-59
2023/02/21 15:22:18;;;;;;;9.90;2.28;;;9.90;64.80;;;;;;5060906;28;20032;-57
2023/02/21 15:24:59;;;;;;;9.85;1.65;;;9.90;64.90;;;;;;5048384;28;20532;-59
2023/02/21 15:27:24;;;;;;;6.70;2.00;;;10.00;64.40;;;;;;5086152;28;20032;-58
2023/02/21 15:30:06;;;;;;;9.52;2.30;;;10.00;64.70;;;;;;5068977;28;20029;-58
2023/02/21 15:32:34;;;;;;;7.75;1.40;;;10.00;64.20;;;;;;5074207;28;20028;-58